< < Back
Terminal Aerodrome Forecast


Current Version              Previous Versions:   1  2  3  4  5  6  7  8  9  

Terminal Aerodrome Forecast

708
FTUS44 KOHX 270400 AAC
TAFCSV
TAF AMD
KCSV 270425Z 2704/2724 21006KT P6SM -RA OVC015
     FM270600 29007KT 4SM -SN OVC010
     FM271200 31008KT P6SM OVC025
     FM271700 31010KT P6SM BKN025
     FM272000 31012KT P6SM SCT025=



Latest METAR

942
SAUS70 KWBC 260900 RRX
MTRCSV
METAR KCSV 270853Z AUTO 27009KT 10SM BKN016 OVC021 02/M01 A3004 RMK AO2
SLP177 T00221006 53015


USA.gov is the U.S. government's official web portal to all federal, state and local government web resources and services.